createdAt,value
2023-11-07T00:02:04.151Z,7.73
2023-11-07T00:05:05.570Z,6.68
2023-11-07T00:08:06.943Z,9.38
2023-11-07T00:11:08.310Z,7.28
2023-11-07T00:14:09.652Z,8.73
2023-11-07T00:17:10.990Z,8.43
2023-11-07T00:20:12.314Z,8.90
2023-11-07T00:23:13.656Z,7.00
2023-11-07T00:26:15.003Z,7.60
2023-11-07T00:29:16.355Z,8.05
2023-11-07T00:32:17.846Z,6.40
2023-11-07T00:35:19.204Z,8.65
2023-11-07T00:38:20.579Z,6.80
2023-11-07T00:41:21.964Z,8.15
2023-11-07T00:44:23.321Z,7.43
2023-11-07T00:47:24.702Z,7.10
2023-11-07T00:50:26.056Z,8.55
2023-11-07T00:53:27.415Z,6.85
2023-11-07T00:56:28.827Z,5.97
2023-11-07T00:59:30.171Z,6.45
2023-11-07T01:02:31.611Z,7.97
2023-11-07T01:05:33.104Z,6.40
2023-11-07T01:08:34.595Z,6.57
2023-11-07T01:11:36.026Z,5.97
2023-11-07T01:14:37.422Z,5.90
2023-11-07T01:17:38.939Z,6.03
2023-11-07T01:20:40.445Z,6.80
2023-11-07T01:23:41.827Z,5.15
2023-11-07T01:26:43.242Z,6.22
2023-11-07T01:29:44.633Z,6.60
2023-11-07T01:32:46.089Z,6.07
2023-11-07T01:35:47.518Z,7.22
2023-11-07T01:38:49.892Z,6.20
2023-11-07T01:41:52.070Z,5.90
2023-11-07T01:44:53.497Z,6.70
2023-11-07T01:47:54.977Z,5.30
2023-11-07T01:50:56.474Z,6.28
2023-11-07T01:53:57.899Z,6.13
2023-11-07T01:56:59.257Z,6.30
2023-11-07T02:00:00.661Z,5.80
2023-11-07T02:03:02.339Z,6.00
2023-11-07T02:06:03.796Z,5.82
2023-11-07T02:09:05.205Z,4.88
2023-11-07T02:12:06.567Z,5.00
2023-11-07T02:15:07.942Z,4.90
2023-11-07T02:18:09.473Z,4.93
2023-11-07T02:21:10.928Z,4.95
2023-11-07T02:24:12.343Z,5.75
2023-11-07T02:27:13.730Z,4.50
2023-11-07T02:30:15.077Z,5.75
2023-11-07T02:33:16.595Z,6.03
2023-11-07T02:36:18.056Z,4.75
2023-11-07T02:39:19.447Z,4.43
2023-11-07T02:42:20.804Z,4.40
2023-11-07T02:45:22.163Z,5.05
2023-11-07T02:48:23.584Z,4.80
2023-11-07T02:51:24.991Z,4.22
2023-11-07T02:54:26.342Z,4.10
2023-11-07T02:57:27.694Z,4.88
2023-11-07T03:00:29.029Z,4.20
2023-11-07T03:03:30.509Z,3.87
2023-11-07T03:06:32.035Z,3.90
2023-11-07T03:09:33.418Z,4.75
2023-11-07T03:12:34.769Z,4.32
2023-11-07T03:15:36.113Z,4.13
2023-11-07T03:18:37.616Z,3.93
2023-11-07T03:21:39.030Z,4.40
2023-11-07T03:24:40.388Z,3.97
2023-11-07T03:27:41.739Z,3.75
2023-11-07T03:30:43.093Z,3.47
2023-11-07T03:33:44.487Z,5.43
2023-11-07T03:36:45.879Z,4.10
2023-11-07T03:39:47.282Z,3.33
2023-11-07T03:42:48.616Z,5.20
2023-11-07T03:45:49.957Z,4.03
2023-11-07T03:48:51.420Z,3.77
2023-11-07T03:51:52.812Z,4.30
2023-11-07T03:54:54.162Z,5.43
2023-11-07T03:57:55.496Z,3.20
2023-11-07T04:00:56.907Z,3.75
2023-11-07T04:03:58.319Z,3.93
2023-11-07T04:06:59.726Z,3.90
2023-11-07T04:10:01.083Z,3.97
2023-11-07T04:13:02.427Z,3.35
2023-11-07T04:16:03.993Z,4.50
2023-11-07T04:19:05.533Z,3.70
2023-11-07T04:22:06.934Z,5.25
2023-11-07T04:25:08.367Z,4.13
2023-11-07T04:28:09.748Z,4.00
2023-11-07T04:31:11.104Z,3.17
2023-11-07T04:34:12.476Z,4.13
2023-11-07T04:37:13.880Z,3.60
2023-11-07T04:40:15.226Z,4.78
2023-11-07T04:43:16.582Z,3.58
2023-11-07T04:46:17.903Z,3.38
2023-11-07T04:49:19.525Z,4.57
2023-11-07T04:52:21.050Z,4.05
2023-11-07T04:55:22.409Z,3.58
2023-11-07T04:58:23.764Z,3.72
2023-11-07T05:01:25.143Z,3.75
2023-11-07T05:04:26.572Z,3.37
2023-11-07T05:07:27.960Z,3.40
2023-11-07T05:10:29.286Z,3.85
2023-11-07T05:13:30.656Z,2.58
2023-11-07T05:16:31.986Z,3.22
2023-11-07T05:19:33.325Z,3.50
2023-11-07T05:22:34.681Z,2.75
2023-11-07T05:25:36.033Z,4.05
2023-11-07T05:28:37.379Z,3.05
2023-11-07T05:31:38.722Z,2.85
2023-11-07T05:34:40.053Z,3.30
2023-11-07T05:37:41.401Z,3.28
2023-11-07T05:40:42.755Z,3.15
2023-11-07T05:43:44.128Z,3.30
2023-11-07T05:46:45.514Z,3.22
2023-11-07T05:49:47.008Z,3.70
2023-11-07T05:52:48.412Z,3.35
2023-11-07T05:55:49.765Z,3.15
2023-11-07T05:58:51.164Z,4.72
2023-11-07T06:01:52.498Z,2.78
2023-11-07T06:04:53.838Z,5.00
2023-11-07T06:07:55.157Z,4.30
2023-11-07T06:10:56.493Z,3.58
2023-11-07T06:13:57.868Z,3.10
2023-11-07T06:16:59.197Z,4.38
2023-11-07T06:20:00.553Z,4.47
2023-11-07T06:23:01.906Z,4.70
2023-11-07T06:26:03.262Z,4.30
2023-11-07T06:29:04.636Z,5.93
2023-11-07T06:32:05.992Z,6.35
2023-11-07T06:35:07.390Z,8.50
2023-11-07T06:38:08.783Z,6.97
2023-11-07T06:41:10.244Z,7.57
2023-11-07T06:44:11.621Z,5.30
2023-11-07T06:47:12.985Z,7.50
2023-11-07T06:50:14.463Z,9.27
2023-11-07T06:53:15.838Z,4.72
2023-11-07T06:56:17.369Z,17.70
2023-11-07T06:59:18.756Z,42.35
2023-11-07T07:02:20.155Z,44.70
2023-11-07T07:05:21.555Z,34.73
2023-11-07T07:08:22.929Z,35.28
2023-11-07T07:11:24.302Z,32.40
2023-11-07T07:14:25.653Z,31.52
2023-11-07T07:17:27.054Z,23.88
2023-11-07T07:20:28.436Z,27.93
2023-11-07T07:23:29.813Z,36.83
2023-11-07T07:26:31.172Z,26.80
2023-11-07T07:29:32.634Z,29.63
2023-11-07T07:32:34.042Z,31.17
2023-11-07T07:35:35.403Z,20.87
2023-11-07T07:38:36.744Z,27.58
2023-11-07T07:41:38.094Z,25.92
2023-11-07T07:44:39.599Z,27.77
2023-11-07T07:47:41.186Z,22.30
2023-11-07T07:50:42.793Z,30.03
2023-11-07T07:53:44.433Z,30.65
2023-11-07T07:56:45.956Z,30.27
2023-11-07T07:59:47.501Z,29.20
2023-11-07T08:02:48.985Z,22.55
2023-11-07T08:05:50.631Z,25.33
2023-11-07T08:08:52.092Z,27.48
2023-11-07T08:11:53.466Z,22.63
2023-11-07T08:14:54.877Z,26.30
2023-11-07T08:17:56.317Z,36.38
2023-11-07T08:20:57.802Z,23.70
2023-11-07T08:23:59.211Z,28.27
2023-11-07T08:27:00.639Z,32.33
2023-11-07T08:30:02.049Z,24.65
2023-11-07T08:33:03.552Z,14.13
2023-11-07T08:36:05.021Z,21.67
2023-11-07T08:39:06.494Z,24.40
2023-11-07T08:42:08.024Z,20.02
2023-11-07T08:45:09.477Z,18.52
2023-11-07T08:48:10.984Z,17.65
2023-11-07T08:51:12.513Z,16.37
2023-11-07T08:54:13.948Z,17.25
2023-11-07T08:57:15.364Z,18.98
2023-11-07T09:00:16.955Z,18.63
2023-11-07T09:03:18.448Z,21.55
2023-11-07T09:06:19.846Z,21.77
2023-11-07T09:09:21.384Z,21.83
2023-11-07T09:12:22.870Z,14.25
2023-11-07T09:15:24.445Z,31.27
2023-11-07T09:18:25.940Z,52.67
2023-11-07T09:21:27.376Z,62.23
2023-11-07T09:24:28.701Z,49.38
2023-11-07T09:27:30.069Z,43.47
2023-11-07T09:30:31.451Z,57.13
2023-11-07T09:33:33.004Z,43.17
2023-11-07T09:36:34.424Z,39.63
2023-11-07T09:39:35.840Z,44.78
2023-11-07T09:42:37.290Z,31.95
2023-11-07T09:45:38.715Z,29.60
2023-11-07T09:48:40.147Z,35.67
2023-11-07T09:51:41.605Z,34.20
2023-11-07T09:54:42.993Z,41.20
2023-11-07T09:57:44.389Z,32.67
2023-11-07T10:00:46.071Z,29.60
2023-11-07T10:03:47.760Z,41.23
2023-11-07T10:06:49.230Z,28.90
2023-11-07T10:09:50.643Z,27.05
2023-11-07T10:12:51.985Z,34.15
2023-11-07T10:15:54.440Z,41.80
2023-11-07T10:18:55.906Z,45.53
2023-11-07T10:21:57.456Z,29.87
2023-11-07T10:24:58.783Z,19.08
2023-11-07T10:28:00.199Z,23.15
2023-11-07T10:31:01.573Z,38.05
2023-11-07T10:34:03.018Z,45.40
2023-11-07T10:37:04.415Z,75.10
2023-11-07T10:40:05.767Z,111.10
2023-11-07T10:43:07.171Z,108.93
2023-11-07T10:46:08.510Z,117.55
2023-11-07T10:49:09.951Z,105.03
2023-11-07T10:52:11.416Z,105.87
2023-11-07T10:55:12.767Z,99.07
2023-11-07T10:58:14.134Z,98.15
2023-11-07T11:01:15.468Z,74.55
2023-11-07T11:04:16.896Z,55.05
2023-11-07T11:07:18.315Z,52.03
2023-11-07T11:10:19.694Z,41.85
2023-11-07T11:13:21.027Z,44.13
2023-11-07T11:16:22.370Z,22.38
2023-11-07T11:19:23.901Z,23.75
2023-11-07T11:22:25.314Z,24.00
2023-11-07T11:25:26.749Z,21.52
2023-11-07T11:28:28.148Z,18.90
2023-11-07T11:31:29.505Z,17.45
2023-11-07T11:34:31.126Z,21.77
2023-11-07T11:37:32.544Z,22.10
2023-11-07T11:40:33.885Z,20.05
2023-11-07T11:43:35.294Z,19.55
2023-11-07T11:46:36.717Z,29.75
2023-11-07T11:49:38.076Z,26.30
2023-11-07T11:52:39.473Z,15.83
2023-11-07T11:55:41.489Z,13.00
2023-11-07T11:58:43.695Z,31.42
2023-11-07T12:01:45.056Z,12.98
2023-11-07T12:04:46.402Z,8.02
2023-11-07T12:07:47.890Z,10.97
2023-11-07T12:10:49.286Z,7.20
2023-11-07T12:13:50.678Z,7.93
2023-11-07T12:16:52.002Z,8.82
2023-11-07T12:19:53.415Z,11.80
2023-11-07T12:22:54.869Z,7.37
2023-11-07T12:25:56.212Z,10.88
2023-11-07T12:28:57.562Z,12.80
2023-11-07T12:31:58.917Z,10.30
2023-11-07T12:35:00.280Z,13.25
2023-11-07T12:38:01.631Z,14.87
2023-11-07T12:41:03.132Z,47.90
2023-11-07T12:44:04.495Z,43.63
2023-11-07T12:47:05.886Z,48.08
2023-11-07T12:50:07.234Z,54.65
2023-11-07T12:53:08.600Z,63.23
2023-11-07T12:56:09.976Z,40.42
2023-11-07T12:59:11.367Z,40.83
2023-11-07T13:02:12.702Z,44.90
2023-11-07T13:05:14.120Z,36.53
2023-11-07T13:08:15.686Z,27.60
2023-11-07T13:11:17.090Z,34.42
2023-11-07T13:14:18.507Z,24.70
2023-11-07T13:17:19.892Z,22.33
2023-11-07T13:20:21.239Z,22.13
2023-11-07T13:23:22.597Z,18.93
2023-11-07T13:26:24.980Z,32.85
2023-11-07T13:29:26.418Z,27.88
2023-11-07T13:32:27.801Z,23.88
2023-11-07T13:35:29.163Z,31.02
2023-11-07T13:38:30.533Z,32.93
2023-11-07T13:41:31.977Z,24.40
2023-11-07T13:44:33.361Z,23.35
2023-11-07T13:47:34.801Z,27.65
2023-11-07T13:50:36.209Z,30.00
2023-11-07T13:53:37.737Z,24.40
2023-11-07T13:56:39.190Z,26.33
2023-11-07T13:59:40.555Z,21.80
2023-11-07T14:02:41.952Z,30.70
2023-11-07T14:05:43.317Z,26.98
2023-11-07T14:08:44.687Z,21.47
2023-11-07T14:11:46.055Z,24.50
2023-11-07T14:14:47.416Z,23.02
2023-11-07T14:17:48.858Z,18.90
2023-11-07T14:20:50.496Z,26.27
2023-11-07T14:23:52.163Z,26.40
2023-11-07T14:26:53.591Z,22.55
2023-11-07T14:30:08.713Z,21.20
2023-11-07T14:33:16.513Z,25.13
2023-11-07T14:36:18.049Z,17.20
2023-11-07T14:39:19.477Z,14.98
2023-11-07T14:42:20.984Z,26.55
2023-11-07T14:45:22.409Z,30.05
2023-11-07T14:48:23.981Z,24.38
2023-11-07T14:51:25.434Z,23.00
2023-11-07T14:54:26.827Z,24.33
2023-11-07T14:57:28.247Z,46.13
2023-11-07T15:00:29.624Z,38.80
2023-11-07T15:03:31.105Z,64.00
2023-11-07T15:06:32.650Z,75.37
2023-11-07T15:09:34.158Z,49.55
2023-11-07T15:12:35.518Z,57.67
2023-11-07T15:15:36.974Z,45.97
2023-11-07T15:18:38.439Z,28.33
2023-11-07T15:21:39.807Z,48.53
2023-11-07T15:24:41.207Z,31.42
2023-11-07T15:27:42.563Z,51.97
2023-11-07T15:30:43.908Z,44.10
2023-11-07T15:33:45.417Z,54.92
2023-11-07T15:36:47.022Z,47.70
2023-11-07T15:39:48.374Z,56.13
2023-11-07T15:42:49.758Z,41.90
2023-11-07T15:45:51.154Z,46.85
2023-11-07T15:48:52.683Z,46.15
2023-11-07T15:51:54.135Z,38.43
2023-11-07T15:54:55.491Z,35.97
2023-11-07T15:57:56.827Z,35.10
2023-11-07T16:00:58.168Z,42.45
2023-11-07T16:03:59.595Z,42.42
2023-11-07T16:07:00.982Z,42.57
2023-11-07T16:10:02.336Z,36.85
2023-11-07T16:13:03.784Z,26.55
2023-11-07T16:16:05.374Z,24.80
2023-11-07T16:19:07.078Z,16.85
2023-11-07T16:22:08.490Z,25.10
2023-11-07T16:25:09.921Z,23.08
2023-11-07T16:28:11.291Z,127.43
2023-11-07T16:31:12.637Z,69.75
2023-11-07T16:34:14.116Z,79.20
2023-11-07T16:37:15.547Z,64.10
2023-11-07T16:40:16.909Z,35.47
2023-11-07T16:43:18.258Z,40.92
2023-11-07T16:46:19.624Z,42.55
2023-11-07T16:49:21.042Z,54.55
2023-11-07T16:52:22.449Z,27.80
2023-11-07T16:55:23.803Z,21.65
2023-11-07T16:58:25.186Z,20.05
2023-11-07T17:01:26.522Z,30.17
2023-11-07T17:04:28.026Z,18.40
2023-11-07T17:07:29.475Z,13.90
2023-11-07T17:10:30.844Z,14.93
2023-11-07T17:13:32.204Z,11.05
2023-11-07T17:16:33.569Z,6.97
2023-11-07T17:19:35.603Z,10.63
2023-11-07T17:22:37.124Z,9.50
2023-11-07T17:25:38.509Z,7.38
2023-11-07T17:28:39.844Z,9.13
2023-11-07T17:31:41.284Z,9.75
2023-11-07T17:34:42.670Z,10.43
2023-11-07T17:37:44.072Z,9.90
2023-11-07T17:40:45.451Z,11.38
2023-11-07T17:43:46.778Z,10.27
2023-11-07T17:46:48.149Z,8.48
2023-11-07T17:49:49.507Z,10.95
2023-11-07T17:52:50.873Z,9.60
2023-11-07T17:55:52.285Z,8.90
2023-11-07T17:58:53.648Z,10.02
2023-11-07T18:01:55.016Z,9.70
2023-11-07T18:04:56.429Z,10.13
2023-11-07T18:07:58.087Z,8.53
2023-11-07T18:10:59.872Z,11.70
2023-11-07T18:14:01.700Z,13.27
2023-11-07T18:17:03.470Z,9.18
2023-11-07T18:20:04.954Z,8.45
2023-11-07T18:23:06.677Z,9.20
2023-11-07T18:26:08.555Z,7.07
2023-11-07T18:29:10.578Z,10.07
2023-11-07T18:32:12.340Z,8.48
2023-11-07T18:35:14.204Z,7.63
2023-11-07T18:38:16.079Z,8.13
2023-11-07T18:41:17.988Z,9.25
2023-11-07T18:44:19.526Z,7.82
2023-11-07T18:47:20.869Z,9.55
2023-11-07T18:50:22.342Z,8.35
2023-11-07T18:53:30.434Z,9.67
2023-11-07T18:56:35.586Z,9.88
2023-11-07T18:59:38.045Z,10.32
2023-11-07T19:02:40.166Z,8.07
2023-11-07T19:05:41.677Z,8.32
2023-11-07T19:08:43.618Z,6.23
2023-11-07T19:11:45.600Z,9.35
2023-11-07T19:14:47.031Z,6.47
2023-11-07T19:17:48.973Z,7.53
2023-11-07T19:20:51.104Z,8.15
2023-11-07T19:23:53.133Z,8.13
2023-11-07T19:26:54.661Z,7.13
2023-11-07T19:29:58.979Z,8.75
2023-11-07T19:33:00.677Z,8.60
2023-11-07T19:36:02.649Z,8.27
2023-11-07T19:39:04.460Z,6.27
2023-11-07T19:42:05.923Z,6.32
2023-11-07T19:45:07.748Z,6.10
2023-11-07T19:48:09.698Z,5.60
2023-11-07T19:51:11.764Z,6.50
2023-11-07T19:54:13.304Z,6.30
2023-11-07T19:57:15.215Z,6.18
2023-11-07T20:00:16.787Z,6.40
2023-11-07T20:03:18.766Z,6.57
2023-11-07T20:06:20.815Z,8.32
2023-11-07T20:09:22.824Z,6.47
2023-11-07T20:12:24.879Z,6.57
2023-11-07T20:15:26.869Z,7.88
2023-11-07T20:18:28.879Z,6.50
2023-11-07T20:21:30.445Z,6.63
2023-11-07T20:24:32.034Z,7.40
2023-11-07T20:27:34.170Z,5.97
2023-11-07T20:30:36.382Z,7.18
2023-11-07T20:33:44.916Z,5.43
2023-11-07T20:36:50.889Z,8.23
2023-11-07T20:39:52.289Z,4.97
2023-11-07T20:42:53.629Z,7.63
2023-11-07T20:45:55.022Z,5.60
2023-11-07T20:48:56.561Z,6.55
2023-11-07T20:51:57.973Z,4.68
2023-11-07T20:54:59.844Z,5.03
2023-11-07T20:58:04.482Z,7.00
2023-11-07T21:01:07.925Z,5.95
2023-11-07T21:04:09.882Z,5.65
2023-11-07T21:07:11.349Z,5.90
2023-11-07T21:10:13.014Z,4.97
2023-11-07T21:13:14.417Z,4.85
2023-11-07T21:16:15.774Z,7.97
2023-11-07T21:19:17.346Z,5.28
2023-11-07T21:22:18.763Z,5.65
2023-11-07T21:25:20.110Z,6.73
2023-11-07T21:28:21.476Z,4.85
2023-11-07T21:31:22.847Z,5.65
2023-11-07T21:34:24.245Z,6.25
2023-11-07T21:37:25.632Z,5.55
2023-11-07T21:40:26.964Z,5.90
2023-11-07T21:43:28.297Z,5.63
2023-11-07T21:46:29.748Z,5.10
2023-11-07T21:49:31.283Z,4.32
2023-11-07T21:52:32.675Z,7.07
2023-11-07T21:55:34.026Z,5.43
2023-11-07T21:58:35.372Z,5.70
2023-11-07T22:01:36.712Z,4.65
2023-11-07T22:04:38.160Z,5.57
2023-11-07T22:07:39.533Z,5.75
2023-11-07T22:10:40.878Z,4.27
2023-11-07T22:13:42.248Z,4.47
2023-11-07T22:16:43.683Z,4.43
2023-11-07T22:19:45.009Z,4.38
2023-11-07T22:22:46.367Z,4.30
2023-11-07T22:25:47.688Z,4.97
2023-11-07T22:28:49.091Z,4.68
2023-11-07T22:31:50.470Z,4.93
2023-11-07T22:34:51.792Z,5.43
2023-11-07T22:37:53.132Z,5.63
2023-11-07T22:40:54.454Z,4.87
2023-11-07T22:43:55.819Z,4.72
2023-11-07T22:46:57.200Z,6.28
2023-11-07T22:49:58.542Z,3.63
2023-11-07T22:52:59.913Z,4.57
2023-11-07T22:56:01.440Z,6.17
2023-11-07T22:59:02.823Z,5.20
2023-11-07T23:02:04.218Z,4.35
2023-11-07T23:05:05.554Z,4.43
2023-11-07T23:08:06.888Z,4.00
2023-11-07T23:11:08.224Z,4.53
2023-11-07T23:14:09.592Z,4.68
2023-11-07T23:17:10.954Z,4.63
2023-11-07T23:20:12.369Z,4.93
2023-11-07T23:23:13.713Z,4.43
2023-11-07T23:26:15.078Z,3.90
2023-11-07T23:29:16.499Z,3.78
2023-11-07T23:32:17.831Z,4.97
2023-11-07T23:35:19.174Z,3.58
2023-11-07T23:38:20.545Z,4.65
2023-11-07T23:41:21.906Z,6.30
2023-11-07T23:44:23.262Z,4.18
2023-11-07T23:47:24.664Z,6.00
2023-11-07T23:50:26.035Z,3.38
2023-11-07T23:53:27.482Z,4.22
2023-11-07T23:56:28.905Z,4.10
2023-11-07T23:59:30.303Z,4.88
